Map

Track Data

SID SEASON NUMBER BASIN SUBBASIN NAME ISO_TIME NATURE LAT LON WMO_WIND WMO_PRES WMO_AGENCY TRACK_TYPE DIST2LAND LANDFALL IFLAG USA_AGENCY USA_ATCF_ID USA_LAT USA_LON USA_RECORD USA_STATUS USA_WIND USA_PRES USA_SSHS USA_R34_NE USA_R34_SE USA_R34_SW USA_R34_NW USA_R50_NE USA_R50_SE USA_R50_SW USA_R50_NW USA_R64_NE USA_R64_SE USA_R64_SW USA_R64_NW USA_POCI USA_ROCI USA_RMW USA_EYE TOKYO_LAT TOKYO_LON TOKYO_GRADE TOKYO_WIND TOKYO_PRES TOKYO_R50_DIR TOKYO_R50_LONG TOKYO_R50_SHORT TOKYO_R30_DIR TOKYO_R30_LONG TOKYO_R30_SHORT TOKYO_LAND CMA_LAT CMA_LON CMA_CAT CMA_WIND CMA_PRES HKO_LAT HKO_LON HKO_CAT HKO_WIND HKO_PRES NEWDELHI_LAT NEWDELHI_LON NEWDELHI_GRADE NEWDELHI_WIND NEWDELHI_PRES NEWDELHI_CI NEWDELHI_DP NEWDELHI_POCI REUNION_LAT REUNION_LON REUNION_TYPE REUNION_WIND REUNION_PRES REUNION_TNUM REUNION_CI REUNION_RMW REUNION_R34_NE REUNION_R34_SE REUNION_R34_SW REUNION_R34_NW REUNION_R50_NE REUNION_R50_SE REUNION_R50_SW REUNION_R50_NW REUNION_R64_NE REUNION_R64_SE REUNION_R64_SW REUNION_R64_NW BOM_LAT BOM_LON BOM_TYPE BOM_WIND BOM_PRES BOM_TNUM BOM_CI BOM_RMW BOM_R34_NE BOM_R34_SE BOM_R34_SW BOM_R34_NW BOM_R50_NE BOM_R50_SE BOM_R50_SW BOM_R50_NW BOM_R64_NE BOM_R64_SE BOM_R64_SW BOM_R64_NW BOM_ROCI BOM_POCI BOM_EYE BOM_POS_METHOD BOM_PRES_METHOD NADI_LAT NADI_LON NADI_CAT NADI_WIND NADI_PRES WELLINGTON_LAT WELLINGTON_LON WELLINGTON_WIND WELLINGTON_PRES DS824_LAT DS824_LON DS824_STAGE DS824_WIND DS824_PRES TD9636_LAT TD9636_LON TD9636_STAGE TD9636_WIND TD9636_PRES TD9635_LAT TD9635_LON TD9635_WIND TD9635_PRES TD9635_ROCI NEUMANN_LAT NEUMANN_LON NEUMANN_CLASS NEUMANN_WIND NEUMANN_PRES MLC_LAT MLC_LON MLC_CLASS MLC_WIND MLC_PRES USA_GUST BOM_GUST BOM_GUST_PER REUNION_GUST REUNION_GUST_PER USA_SEAHGT USA_SEARAD_NE USA_SEARAD_SE USA_SEARAD_SW USA_SEARAD_NW STORM_SPEED STORM_DIR
1917032S11054 1917 6 SI MM NOT_NAMED 1917-01-31 18:00:00 NR -11.0000 54.0000 main 499 410 __________O___ -1 -11.0000 54.0000 7 17 241
1917032S11054 1917 6 SI MM NOT_NAMED 1917-01-31 21:00:00 NR -11.4079 53.2392 main 401 312 __________P___ -1 -11.4079 53.2392 7 17 241
1917032S11054 1917 6 SI MM NOT_NAMED 1917-02-01 00:00:00 NR -11.8119 52.4917 main 312 224 __________P___ -1 -11.8119 52.4917 7 16 241
1917032S11054 1917 6 SI MM NOT_NAMED 1917-02-01 03:00:00 NR -12.2098 51.7734 main 224 137 __________P___ -1 -12.2098 51.7734 7 16 240
1917032S11054 1917 6 SI MM NOT_NAMED 1917-02-01 06:00:00 NR -12.6000 51.1000 main 137 65 __________O___ -1 -12.6000 51.1000 7 15 238
1917032S11054 1917 6 SI MM NOT_NAMED 1917-02-01 09:00:00 NR -12.9816 50.4846 main 65 10 __________P___ -1 -12.9816 50.4846 7 14 236
1917032S11054 1917 6 SI MM NOT_NAMED 1917-02-01 12:00:00 NR -13.3568 49.9295 main 0 0 __________P___ -1 -13.3568 49.9295 7 13 234
1917032S11054 1917 6 SI MM NOT_NAMED 1917-02-01 15:00:00 NR -13.7287 49.4347 main 0 0 __________P___ -1 -13.7287 49.4347 7 12 231
1917032S11054 1917 6 SI MM NOT_NAMED 1917-02-01 18:00:00 NR -14.1000 49.0000 main 0 0 __________O___ -1 -14.1000 49.0000 7 11 227
1917032S11054 1917 6 SI MM NOT_NAMED 1917-02-01 21:00:00 NR -14.4867 48.5928 main 0 0 __________P___ -1 -14.4867 48.5928 7 11 223
1917032S11054 1917 6 SI MM NOT_NAMED 1917-02-02 00:00:00 NR -14.8720 48.2447 main 0 0 __________P___ -1 -14.8720 48.2447 7 10 219
1917032S11054 1917 6 SI MM NOT_NAMED 1917-02-02 03:00:00 NR -15.2463 47.9492 main 0 0 __________P___ -1 -15.2463 47.9492 7 9 216
1917032S11054 1917 6 SI MM NOT_NAMED 1917-02-02 06:00:00 NR -15.6000 47.7000 main 0 0 __________O___ -1 -15.6000 47.7000 7 8 214
1917032S11054 1917 6 SI MM NOT_NAMED 1917-02-02 09:00:00 NR -15.9132 47.4772 main 0 0 __________P___ -1 -15.9132 47.4772 7 7 213
1917032S11054 1917 6 SI MM NOT_NAMED 1917-02-02 12:00:00 NR -16.2072 47.2967 main 0 0 __________P___ -1 -16.2072 47.2967 7 7 209
1917032S11054 1917 6 SI MM NOT_NAMED 1917-02-02 15:00:00 NR -16.4976 47.1429 main 0 0 __________P___ -1 -16.4976 47.1429 7 7 206
1917032S11054 1917 6 SI MM NOT_NAMED 1917-02-02 18:00:00 NR -16.8000 47.0000 main 0 0 __________O___ -1 -16.8000 47.0000 7 7 206
1917032S11054 1917 6 SI MM NOT_NAMED 1917-02-02 21:00:00 NR -17.1194 46.8226 main 0 0 __________P___ -1 -17.1194 46.8226 7 7 207
1917032S11054 1917 6 SI MM NOT_NAMED 1917-02-03 00:00:00 NR -17.4551 46.6552 main 0 0 __________P___ -1 -17.4551 46.6552 7 8 203
1917032S11054 1917 6 SI MM NOT_NAMED 1917-02-03 03:00:00 NR -17.8132 46.5101 main 0 0 __________P___ -1 -17.8132 46.5101 7 8 198
1917032S11054 1917 6 SI MM NOT_NAMED 1917-02-03 06:00:00 NR -18.2000 46.4000 main 0 0 __________O___ -1 -18.2000 46.4000 7 8 193
1917032S11054 1917 6 SI MM NOT_NAMED 1917-02-03 09:00:00 NR -18.6252 46.3148 main 0 0 __________P___ -1 -18.6252 46.3148 7 9 188
1917032S11054 1917 6 SI MM NOT_NAMED 1917-02-03 12:00:00 NR -19.0774 46.2677 main 0 0 __________P___ -1 -19.0774 46.2677 7 9 184
1917032S11054 1917 6 SI MM NOT_NAMED 1917-02-03 15:00:00 NR -19.5409 46.2618 main 0 0 __________P___ -1 -19.5409 46.2618 7 9 177
1917032S11054 1917 6 SI MM NOT_NAMED 1917-02-03 18:00:00 NR -20.0000 46.3000 main 0 0 __________O___ -1 -20.0000 46.3000 7 9 173
1917032S11054 1917 6 SI MM NOT_NAMED 1917-02-03 21:00:00 NR -20.4444 46.3774 main 0 0 __________P___ -1 -20.4444 46.3774 7 9 168
1917032S11054 1917 6 SI MM NOT_NAMED 1917-02-04 00:00:00 NR -20.8800 46.4971 main 0 0 __________P___ -1 -20.8800 46.4971 7 9 164
1917032S11054 1917 6 SI MM NOT_NAMED 1917-02-04 03:00:00 NR -21.3006 46.6432 main 0 0 __________P___ -1 -21.3006 46.6432 7 9 161
1917032S11054 1917 6 SI MM NOT_NAMED 1917-02-04 06:00:00 NR -21.7000 46.8000 main 0 0 __________O___ -1 -21.7000 46.8000 7 8 161
1917032S11054 1917 6 SI MM NOT_NAMED 1917-02-04 09:00:00 NR -22.0837 46.9389 main 0 0 __________P___ -1 -22.0837 46.9389 7 8 160
1917032S11054 1917 6 SI MM NOT_NAMED 1917-02-04 12:00:00 NR -22.4449 47.0853 main 0 0 __________P___ -1 -22.4449 47.0853 7 8 158
1917032S11054 1917 6 SI MM NOT_NAMED 1917-02-04 15:00:00 NR -22.7837 47.2389 main 0 0 __________P___ -1 -22.7837 47.2389 7 7 156
1917032S11054 1917 6 SI MM NOT_NAMED 1917-02-04 18:00:00 NR -23.1000 47.4000 main 0 0 __________O___ -1 -23.1000 47.4000 7 5 158
1917032S11054 1917 6 SI MM NOT_NAMED 1917-02-04 21:00:00 NR -23.2483 47.4459 main 0 0 __________P___ -1 -23.2483 47.4459 7 3 161
1917032S11054 1917 6 SI MM NOT_NAMED 1917-02-05 00:00:00 NR -23.3990 47.5167 main 0 0 __________P___ -1 -23.3990 47.5167 7 5 151
1917032S11054 1917 6 SI MM NOT_NAMED 1917-02-05 03:00:00 NR -23.6752 47.7036 main 15 15 __________P___ -1 -23.6752 47.7036 7 10 146
1917032S11054 1917 6 SI MM NOT_NAMED 1917-02-05 06:00:00 NR -24.2000 48.1000 main 64 64 __________O___ -1 -24.2000 48.1000 7 18 146
1917032S11054 1917 6 SI MM NOT_NAMED 1917-02-05 09:00:00 NR -25.1881 48.8255 main 170 170 __________P___ -1 -25.1881 48.8255 7 27 146
1917032S11054 1917 6 SI MM NOT_NAMED 1917-02-05 12:00:00 NR -26.4120 49.7788 main 312 312 __________P___ -1 -26.4120 49.7788 7 31 144
1917032S11054 1917 6 SI MM NOT_NAMED 1917-02-05 15:00:00 NR -27.7042 50.8698 main 483 483 __________P___ -1 -27.7042 50.8698 7 32 142
1917032S11054 1917 6 SI MM NOT_NAMED 1917-02-05 18:00:00 NR -28.9000 52.0000 main 651 651 __________O___ -1 -28.9000 52.0000 7 28 138
1917032S11054 1917 6 SI MM NOT_NAMED 1917-02-05 21:00:00 NR -29.7640 52.9895 main 790 790 __________P___ -1 -29.7640 52.9895 7 24 133
1917032S11054 1917 6 SI MM NOT_NAMED 1917-02-06 00:00:00 NR -30.5139 53.9909 main 914 914 __________P___ -1 -30.5139 53.9909 7 23 130
1917032S11054 1917 6 SI MM NOT_NAMED 1917-02-06 03:00:00 NR -31.2071 55.0212 main 1037 1037 __________P___ -1 -31.2071 55.0212 7 23 128
1917032S11054 1917 6 SI MM NOT_NAMED 1917-02-06 06:00:00 NR -31.9000 56.1000 main 1167 1167 __________O___ -1 -31.9000 56.1000 7 24 127
1917032S11054 1917 6 SI MM NOT_NAMED 1917-02-06 09:00:00 NR -32.6578 57.2570 main 1273 1273 __________P___ -1 -32.6578 57.2570 7 25 127
1917032S11054 1917 6 SI MM NOT_NAMED 1917-02-06 12:00:00 NR -33.4247 58.4690 main 1369 1369 __________P___ -1 -33.4247 58.4690 7 26 127
1917032S11054 1917 6 SI MM NOT_NAMED 1917-02-06 15:00:00 NR -34.2040 59.7215 main 1484 1484 __________P___ -1 -34.2040 59.7215 7 26 127
1917032S11054 1917 6 SI MM NOT_NAMED 1917-02-06 18:00:00 NR -35.0000 61.0000 main 1606 1545 __________O___ -1 -35.0000 61.0000 7 27 127
1917032S11054 1917 6 SI MM NOT_NAMED 1917-02-06 21:00:00 NR -35.8152 62.2936 main 1542 1425 __________P___ -1 -35.8152 62.2936 7 27 128
1917032S11054 1917 6 SI MM NOT_NAMED 1917-02-07 00:00:00 NR -36.6433 63.6049 main 1422 1307 __________P___ -1 -36.6433 63.6049 7 27 128
1917032S11054 1917 6 SI MM NOT_NAMED 1917-02-07 03:00:00 NR -37.4749 64.9392 main 1296 1187 __________P___ -1 -37.4749 64.9392 7 27 128
1917032S11054 1917 6 SI MM NOT_NAMED 1917-02-07 06:00:00 NR -38.3000 66.3000 main 1185 __________O___ -1 -38.3000 66.3000 7 27 128

About IBTrACS Database

This database is a web-friendly format of International Best Track Archive for Climate Stewardship (IBTrACS), a global best track data archive curated by NOAA dating back to 1842.

Updated: 2021-10-21